Time;durP1;ratioP1;P1;durP2;ratioP2;P2;SDS_P1;SDS_P2;PMS_P1;PMS_P2;Temp;Humidity;BMP_temperature;BMP_pressure;BME280_temperature;BME280_humidity;BME280_pressure;Samples;Min_cycle;Max_cycle;Signal;HPM_P1;HPM_P2
2023/04/07 00:01:12;;;;;;;51.93;30.80;;;;;;;3.42;100.00;100251.48;125273;1099;104056;-78
2023/04/07 00:03:45;;;;;;;55.37;32.23;;;;;;;3.39;100.00;100254.77;125414;1099;101741;-77
2023/04/07 00:06:17;;;;;;;60.90;34.15;;;;;;;3.40;100.00;100258.28;124908;1099;101670;-78
2023/04/07 00:08:49;;;;;;;59.13;34.33;;;;;;;3.40;100.00;100258.28;125180;1099;102253;-77
2023/04/07 00:11:22;;;;;;;58.50;34.90;;;;;;;3.37;100.00;100253.79;125133;1099;101711;-77
2023/04/07 00:13:54;;;;;;;56.73;33.93;;;;;;;3.36;100.00;100251.11;125108;1099;101664;-77
2023/04/07 00:16:26;;;;;;;57.57;34.20;;;;;;;3.35;100.00;100257.08;125054;1099;103961;-77
2023/04/07 00:18:58;;;;;;;56.40;33.20;;;;;;;3.36;100.00;100258.89;125086;1099;103994;-78
2023/04/07 00:21:31;;;;;;;63.17;35.23;;;;;;;3.33;100.00;100251.80;125081;1099;103862;-77
2023/04/07 00:24:03;;;;;;;63.23;33.80;;;;;;;3.32;100.00;100251.70;125022;1099;101819;-77
2023/04/07 00:26:36;;;;;;;53.70;32.30;;;;;;;3.30;100.00;100254.20;125209;1099;103987;-77
2023/04/07 00:29:08;;;;;;;57.00;33.03;;;;;;;3.30;100.00;100266.29;125093;1099;104101;-77
2023/04/07 00:31:40;;;;;;;53.10;30.73;;;;;;;3.28;100.00;100248.05;124993;1099;104026;-77
2023/04/07 00:34:12;;;;;;;49.47;30.00;;;;;;;3.30;100.00;100255.92;125181;1099;103839;-78
2023/04/07 00:36:51;;;;;;;52.40;29.90;;;;;;;3.30;100.00;100249.02;125100;1098;101695;-78
2023/04/07 00:39:23;;;;;;;47.40;28.90;;;;;;;3.30;100.00;100251.62;125141;1099;103970;-77
2023/04/07 00:41:55;;;;;;;51.77;29.90;;;;;;;3.29;100.00;100251.52;125096;1099;102330;-78
2023/04/07 00:44:27;;;;;;;49.33;28.10;;;;;;;3.30;100.00;100250.73;125163;1099;101859;-77
2023/04/07 00:47:00;;;;;;;49.53;28.83;;;;;;;3.28;100.00;100257.53;125050;1099;103999;-78
2023/04/07 00:49:32;;;;;;;49.17;27.40;;;;;;;3.27;100.00;100258.33;125237;1099;101596;-77
2023/04/07 00:52:06;;;;;;;48.03;28.13;;;;;;;3.27;100.00;100260.92;125307;1099;103887;-78
2023/04/07 00:54:39;;;;;;;48.90;27.45;;;;;;;3.28;100.00;100252.34;125260;1098;101759;-77
2023/04/07 00:57:11;;;;;;;49.27;27.97;;;;;;;3.27;100.00;100255.73;125259;1099;103999;-78
2023/04/07 00:59:44;;;;;;;45.57;26.17;;;;;;;3.26;100.00;100260.03;125330;1099;101612;-80
2023/04/07 01:02:21;;;;;;;45.20;26.23;;;;;;;3.24;100.00;100257.34;124827;1099;103970;-78
2023/04/07 01:05:03;;;;;;;43.87;26.57;;;;;;;3.24;100.00;100267.72;125316;1099;101949;-77
2023/04/07 01:07:44;;;;;;;43.80;26.47;;;;;;;3.26;100.00;100261.70;125317;1099;101949;-77
2023/04/07 01:10:26;;;;;;;48.20;27.83;;;;;;;3.29;100.00;100268.00;125016;1099;104162;-79
2023/04/07 01:13:12;;;;;;;50.63;28.70;;;;;;;3.33;100.00;100262.17;125302;1099;104031;-78
2023/04/07 01:15:48;;;;;;;55.33;29.27;;;;;;;3.36;100.00;100264.07;125373;1099;104043;-77
2023/04/07 01:18:26;;;;;;;52.93;30.07;;;;;;;3.38;100.00;100271.16;125292;1098;101475;-78
2023/04/07 01:21:03;;;;;;;51.77;29.50;;;;;;;3.39;100.00;100265.14;125260;1098;102496;-77
2023/04/07 01:23:51;;;;;;;49.10;27.97;;;;;;;3.40;100.00;100271.25;125276;1099;101628;-77
2023/04/07 01:26:28;;;;;;;51.87;28.83;;;;;;;3.39;100.00;100272.92;125301;1098;101624;-77
2023/04/07 01:29:46;;;;;;;48.13;28.20;;;;;;;3.39;100.00;100267.73;125308;1099;101656;-77
2023/04/07 01:32:20;;;;;;;53.03;30.17;;;;;;;3.39;100.00;100267.73;124747;1101;103960;-77
2023/04/07 01:34:55;;;;;;;52.80;30.13;;;;;;;3.39;100.00;100266.85;125250;1099;102302;-80
2023/04/07 01:37:29;;;;;;;54.30;28.63;;;;;;;3.41;100.00;100270.42;125323;1099;101946;-78
2023/04/07 01:40:01;;;;;;;51.23;29.17;;;;;;;3.40;100.00;100264.35;125265;1099;103947;-78
2023/04/07 01:42:35;;;;;;;51.27;29.73;;;;;;;3.41;100.00;100262.64;125324;1099;110868;-78
2023/04/07 01:45:11;;;;;;;50.83;29.67;;;;;;;3.45;100.00;100266.34;125378;1098;102091;-78
2023/04/07 01:47:44;;;;;;;49.50;29.60;;;;;;;3.47;100.00;100256.94;125205;1099;103942;-78
2023/04/07 01:50:17;;;;;;;56.70;30.03;;;;;;;3.49;100.00;100261.43;125333;1099;102131;-78
2023/04/07 01:52:49;;;;;;;55.20;31.13;;;;;;;3.48;100.00;100264.81;125362;1099;101873;-78
2023/04/07 01:55:23;;;;;;;51.70;29.50;;;;;;;3.45;100.00;100267.22;125274;1099;103990;-77
2023/04/07 01:58:07;;;;;;;52.03;28.60;;;;;;;3.46;100.00;100269.02;125336;1099;101649;-78
2023/04/07 02:00:42;;;;;;;54.40;29.90;;;;;;;3.49;100.00;100268.30;125387;1099;104021;-76
2023/04/07 02:03:23;;;;;;;53.43;29.13;;;;;;;3.50;100.00;100272.69;125103;1098;103976;-78
2023/04/07 02:05:58;;;;;;;50.70;28.30;;;;;;;3.51;100.00;100272.78;125118;1099;103996;-78
2023/04/07 02:08:36;;;;;;;53.40;28.67;;;;;;;3.48;100.00;100264.81;125185;1099;104137;-78
2023/04/07 02:11:11;;;;;;;57.03;30.00;;;;;;;3.48;100.00;100277.78;125206;1099;104031;-78
2023/04/07 02:13:44;;;;;;;50.00;26.87;;;;;;;3.47;100.00;100270.80;125298;1099;101748;-78
2023/04/07 02:16:19;;;;;;;49.75;28.10;;;;;;;3.45;100.00;100275.00;125180;1099;101666;-79
2023/04/07 02:18:52;;;;;;;52.07;27.70;;;;;;;3.48;100.00;100272.59;125221;1099;102114;-77
2023/04/07 02:21:25;;;;;;;54.13;28.40;;;;;;;3.51;100.00;100277.97;125283;1099;101747;-78
2023/04/07 02:24:00;;;;;;;50.03;25.53;;;;;;;3.51;100.00;100277.97;125333;1099;101615;-78
2023/04/07 02:26:36;;;;;;;51.67;26.47;;;;;;;3.52;100.00;100284.96;124769;1099;101861;-77
2023/04/07 02:29:08;;;;;;;47.53;25.37;;;;;;;3.51;100.00;100283.16;125410;1099;101705;-78
2023/04/07 02:31:41;;;;;;;50.33;25.77;;;;;;;3.51;100.00;100279.68;124952;1099;104080;-78
2023/04/07 02:34:14;;;;;;;52.07;24.53;;;;;;;3.49;100.00;100282.19;124831;1099;104086;-78
2023/04/07 02:36:46;;;;;;;49.27;25.43;;;;;;;3.50;100.00;100285.66;124838;1099;103993;-78
2023/04/07 02:39:18;;;;;;;47.13;24.90;;;;;;;3.51;100.00;100283.16;125220;1099;101776;-78
2023/04/07 02:41:51;;;;;;;54.73;27.03;;;;;;;3.55;100.00;100289.42;125289;1099;103983;-79
2023/04/07 02:44:23;;;;;;;50.87;25.63;;;;;;;3.56;100.00;100294.70;124820;1099;103948;-77
2023/04/07 02:46:55;;;;;;;54.63;26.43;;;;;;;3.58;100.00;100281.82;125285;1099;104040;-77
2023/04/07 02:49:28;;;;;;;52.33;25.88;;;;;;;3.61;100.00;100284.59;125314;1098;101830;-78
2023/04/07 02:52:01;;;;;;;50.70;25.93;;;;;;;3.63;100.00;100287.28;125453;1098;104063;-77
2023/04/07 02:54:33;;;;;;;56.20;26.95;;;;;;;3.63;100.00;100292.48;125320;1099;102184;-77
2023/04/07 02:57:09;;;;;;;53.57;25.97;;;;;;;3.65;100.00;100296.08;125387;1099;101653;-79
2023/04/07 02:59:41;;;;;;;58.50;28.03;;;;;;;3.67;100.00;100291.87;125368;1099;103939;-79
2023/04/07 03:02:14;;;;;;;53.97;27.67;;;;;;;3.68;100.00;100297.15;125068;1099;103951;-79
2023/04/07 03:04:47;;;;;;;56.10;28.40;;;;;;;3.69;100.00;100292.84;125013;1099;101899;-80
2023/04/07 03:07:19;;;;;;;60.00;29.37;;;;;;;3.69;100.00;100292.84;125461;1099;101759;-79
2023/04/07 03:09:52;;;;;;;59.40;30.43;;;;;;;3.70;100.00;100294.64;124806;1099;101904;-79
2023/04/07 03:12:24;;;;;;;58.97;31.13;;;;;;;3.72;100.00;100303.41;125125;1099;103973;-80
2023/04/07 03:14:57;;;;;;;63.00;31.37;;;;;;;3.73;100.00;100302.61;125449;1099;103974;-78
2023/04/07 03:17:31;;;;;;;64.53;31.65;;;;;;;3.73;100.00;100298.31;125445;1099;104385;-79
2023/04/07 03:20:03;;;;;;;61.83;31.23;;;;;;;3.77;100.00;100309.76;125392;1099;102923;-79
2023/04/07 03:22:37;;;;;;;60.75;30.90;;;;;;;3.78;100.00;100303.78;125315;1099;101588;-78
2023/04/07 03:25:11;;;;;;;65.93;31.20;;;;;;;3.80;100.00;100307.34;124882;1099;101898;-79
2023/04/07 03:27:43;;;;;;;65.62;31.77;;;;;;;3.80;100.00;100303.87;125471;1099;103974;-78
2023/04/07 03:30:16;;;;;;;67.10;32.77;;;;;;;3.81;100.00;100300.48;125151;1099;103235;-79
2023/04/07 03:32:49;;;;;;;65.50;33.13;;;;;;;3.82;100.00;100308.36;125158;1099;103897;-79
2023/04/07 03:35:21;;;;;;;69.73;33.83;;;;;;;3.82;100.00;100307.44;125440;1099;102041;-78
2023/04/07 03:37:54;;;;;;;71.53;34.20;;;;;;;3.84;100.00;100314.52;125464;1099;104072;-79
2023/04/07 03:40:26;;;;;;;75.27;35.70;;;;;;;3.86;100.00;100312.91;125572;1099;101635;-79
2023/04/07 03:42:58;;;;;;;72.00;35.87;;;;;;;3.88;100.00;100313.91;125528;1099;101831;-79
2023/04/07 03:45:30;;;;;;;77.00;34.47;;;;;;;3.90;100.00;100317.48;125206;1099;104082;-78
2023/04/07 03:48:03;;;;;;;76.47;35.10;;;;;;;3.92;100.00;100327.96;125614;1099;101879;-78
2023/04/07 03:50:36;;;;;;;72.40;34.77;;;;;;;3.94;100.00;100331.53;124973;1099;102993;-80
2023/04/07 03:53:18;;;;;;;74.37;35.67;;;;;;;3.94;100.00;100335.05;125063;1099;101681;-82
2023/04/07 03:55:51;;;;;;;86.77;36.87;;;;;;;3.97;100.00;100336.91;125432;1099;103948;-82
2023/04/07 03:58:30;;;;;;;77.50;35.63;;;;;;;3.98;100.00;100340.42;126039;1099;103952;-82
2023/04/07 04:01:02;;;;;;;84.87;37.00;;;;;;;3.99;100.00;100339.59;126276;1099;103954;-82
2023/04/07 04:03:35;;;;;;;83.73;38.23;;;;;;;4.00;100.00;100344.88;126103;1099;101650;-81
2023/04/07 04:06:18;;;;;;;79.60;36.83;;;;;;;4.01;100.00;100351.88;126032;1099;101814;-82
2023/04/07 04:08:52;;;;;;;84.05;37.85;;;;;;;4.03;100.00;100352.85;126099;1099;102046;-83
2023/04/07 04:11:25;;;;;;;78.10;36.87;;;;;;;4.05;100.00;100347.75;125991;1099;104034;-83
2023/04/07 04:14:02;;;;;;;82.83;36.20;;;;;;;4.05;100.00;100353.86;125748;1099;104057;-82
2023/04/07 04:16:35;;;;;;;83.47;35.67;;;;;;;4.07;100.00;100356.55;126002;1099;101649;-84
2023/04/07 04:19:10;;;;;;;84.73;35.93;;;;;;;4.09;100.00;100352.33;126188;1099;101990;-84
2023/04/07 04:21:42;;;;;;;85.07;36.73;;;;;;;4.10;100.00;100364.52;125573;1099;103505;-82
2023/04/07 04:24:15;;;;;;;84.67;36.97;;;;;;;4.09;100.00;100363.61;125961;1099;101856;-83
2023/04/07 04:26:49;;;;;;;86.40;36.27;;;;;;;4.13;100.00;100369.90;126046;1099;103941;-84
2023/04/07 04:29:21;;;;;;;86.10;37.47;;;;;;;4.15;100.00;100370.88;125514;1099;103938;-85
2023/04/07 04:31:54;;;;;;;85.43;37.63;;;;;;;4.19;100.00;100375.45;125846;1098;101417;-83
2023/04/07 04:34:27;;;;;;;87.03;37.27;;;;;;;4.22;100.00;100370.41;125460;1099;104153;-82
2023/04/07 04:37:00;;;;;;;89.70;37.00;;;;;;;4.25;100.00;100368.00;124888;1099;101979;-81
2023/04/07 04:39:32;;;;;;;94.87;39.27;;;;;;;4.28;100.00;100372.48;125271;1099;101581;-84
2023/04/07 04:42:06;;;;;;;94.00;37.90;;;;;;;4.29;100.00;100379.48;126121;1099;101906;-84
2023/04/07 04:44:40;;;;;;;90.03;38.00;;;;;;;4.30;100.00;100383.85;125626;1099;103981;-88
2023/04/07 04:47:13;;;;;;;89.13;37.63;;;;;;;4.30;100.00;100379.58;125779;1099;101972;-87
2023/04/07 04:49:45;;;;;;;83.47;36.67;;;;;;;4.34;100.00;100391.03;125505;1099;102106;-86
2023/04/07 04:52:20;;;;;;;88.15;39.13;;;;;;;4.37;100.00;100388.61;125555;1099;103955;-85
2023/04/07 04:54:55;;;;;;;87.45;37.73;;;;;;;4.42;100.00;100381.97;125745;1099;104453;-85
2023/04/07 04:57:29;;;;;;;97.20;39.27;;;;;;;4.49;100.00;100402.33;126103;1099;104041;-87
2023/04/07 05:00:01;;;;;;;97.63;38.67;;;;;;;4.52;100.00;100395.50;127170;1099;101757;-86
2023/04/07 05:02:35;;;;;;;96.12;41.33;;;;;;;4.57;100.00;100394.09;125914;1099;101572;-84
2023/04/07 05:05:10;;;;;;;88.83;39.63;;;;;;;4.60;100.00;100395.16;126000;1098;102472;-86
2023/04/07 05:07:45;;;;;;;103.60;41.17;;;;;;;4.63;100.00;100395.33;126048;1099;101744;-82
2023/04/07 05:10:19;;;;;;;97.17;42.93;;;;;;;4.64;100.00;100401.41;124875;1099;103995;-83
2023/04/07 05:12:54;;;;;;;94.00;44.10;;;;;;;4.68;100.00;100408.59;125751;1098;102136;-80
2023/04/07 05:15:26;;;;;;;100.83;43.73;;;;;;;4.73;100.00;100416.66;125333;1099;103954;-74
2023/04/07 05:17:59;;;;;;;95.13;42.80;;;;;;;4.78;100.00;100412.61;126088;1099;103996;-75
2023/04/07 05:20:32;;;;;;;90.97;41.48;;;;;;;4.84;100.00;100418.16;125520;1099;102761;-77
2023/04/07 05:23:06;;;;;;;97.83;42.60;;;;;;;4.89;100.00;100418.42;125108;1099;102015;-78
2023/04/07 05:25:41;;;;;;;94.93;41.67;;;;;;;4.92;100.00;100421.20;125269;1099;102365;-82
2023/04/07 05:28:16;;;;;;;96.87;43.27;;;;;;;4.91;100.00;100428.12;126002;1099;103917;-80
2023/04/07 05:30:49;;;;;;;105.33;44.87;;;;;;;4.93;100.00;100430.80;125413;1099;103909;-78
2023/04/07 05:33:22;;;;;;;112.67;46.33;;;;;;;4.96;100.00;100434.47;125443;1099;101989;-78
2023/04/07 05:35:57;;;;;;;99.93;43.83;;;;;;;5.00;100.00;100431.24;125637;1099;103364;-78
2023/04/07 05:38:30;;;;;;;102.43;45.53;;;;;;;5.05;100.00;100434.11;125628;1099;103954;-83
2023/04/07 05:41:02;;;;;;;;;;;;;;;5.11;100.00;100433.53;125783;1099;102552;-79
2023/04/07 05:43:38;;;;;;;103.27;45.60;;;;;;;5.15;100.00;100440.72;125684;1099;103957;-82
2023/04/07 05:46:14;;;;;;;93.27;44.30;;;;;;;5.16;100.00;100438.20;125621;1099;102579;-80
2023/04/07 05:48:53;;;;;;;90.93;41.40;;;;;;;5.21;100.00;100448.86;125692;1099;102487;-79
2023/04/07 05:51:32;;;;;;;84.97;42.63;;;;;;;5.29;100.00;100438.89;125713;1099;102838;-79
2023/04/07 05:54:06;;;;;;;96.50;43.97;;;;;;;5.37;100.00;100438.48;125505;1099;102713;-78
2023/04/07 05:56:38;;;;;;;94.30;43.93;;;;;;;5.45;100.00;100445.83;125207;1099;104117;-76
2023/04/07 05:59:11;;;;;;;91.13;42.77;;;;;;;5.52;100.00;100445.38;125710;1099;101718;-77
2023/04/07 06:01:45;;;;;;;90.50;44.20;;;;;;;5.60;100.00;100446.68;125680;1099;103948;-79
2023/04/07 06:04:19;;;;;;;92.20;42.73;;;;;;;5.68;100.00;100445.38;125547;1099;102962;-79
2023/04/07 06:06:54;;;;;;;80.40;40.38;;;;;;;5.78;100.00;100452.00;125441;1099;103983;-76
2023/04/07 06:09:28;;;;;;;83.30;41.27;;;;;;;5.85;100.00;100454.11;125323;1099;101976;-79
2023/04/07 06:12:03;;;;;;;83.15;40.35;;;;;;;5.88;100.00;100462.08;124778;1099;104042;-80
2023/04/07 06:14:57;;;;;;;80.83;39.77;;;;;;;5.93;100.00;100460.61;125132;1099;103547;-76
2023/04/07 06:17:37;;;;;;;72.43;37.77;;;;;;;5.97;100.00;100456.52;124835;1099;103916;-75
2023/04/07 06:20:16;;;;;;;;;;;;;;;6.01;100.00;100465.38;124764;1099;101616;-81
2023/04/07 06:22:59;;;;;;;79.30;38.60;;;;;;;6.07;100.00;100468.31;125279;1099;103967;-75
2023/04/07 06:25:33;;;;;;;75.87;37.93;;;;;;;6.12;100.00;100464.23;125240;1099;104077;-77
2023/04/07 06:28:13;;;;;;;73.57;39.50;;;;;;;6.18;100.00;100472.38;124616;1099;101809;-82
2023/04/07 06:31:00;;;;;;;;;;;;;;;6.24;100.00;100479.63;124979;1099;104006;-76
2023/04/07 06:33:33;;;;;;;72.00;36.30;;;;;;;6.25;100.00;100478.83;124616;1102;101795;-77
2023/04/07 06:36:06;;;;;;;63.53;34.77;;;;;;;6.27;100.00;100478.07;124839;1099;104035;-79
2023/04/07 06:38:47;;;;;;;64.97;35.03;;;;;;;6.29;100.00;100480.77;125241;1099;110806;-78
2023/04/07 06:41:26;;;;;;;63.15;33.65;;;;;;;6.30;100.00;100485.17;125661;1099;103951;-76
2023/04/07 06:44:06;;;;;;;64.10;32.17;;;;;;;6.28;100.00;100489.42;125106;1099;103386;-78
2023/04/07 06:46:43;;;;;;;56.70;32.23;;;;;;;6.27;100.00;100492.83;124976;1099;104038;-77
2023/04/07 06:49:18;;;;;;;61.27;34.13;;;;;;;6.31;100.00;100486.97;125222;1099;103955;-81
2023/04/07 06:51:57;;;;;;;62.83;33.03;;;;;;;6.34;100.00;100491.43;125212;1099;101748;-77
2023/04/07 06:54:30;;;;;;;61.13;33.30;;;;;;;6.36;100.00;100490.70;125001;1099;103951;-75
2023/04/07 06:57:03;;;;;;;58.23;31.47;;;;;;;6.37;100.00;100500.29;124803;1099;101766;-76
2023/04/07 06:59:44;;;;;;;63.67;32.90;;;;;;;6.38;100.00;100496.88;124853;1099;104153;-75
2023/04/07 07:02:17;;;;;;;60.30;32.67;;;;;;;6.38;100.00;100504.70;124563;1099;104037;-76
2023/04/07 07:04:50;;;;;;;65.30;34.27;;;;;;;6.38;100.00;100504.70;124775;1099;101666;-76
2023/04/07 07:07:24;;;;;;;59.33;31.43;;;;;;;6.39;100.00;100505.59;124840;1099;103954;-77
2023/04/07 07:09:57;;;;;;;56.47;30.33;;;;;;;6.36;100.00;100508.95;124764;1099;104127;-76
2023/04/07 07:12:33;;;;;;;58.37;32.20;;;;;;;6.36;100.00;100511.55;124640;1099;103102;-75
2023/04/07 07:15:10;;;;;;;59.00;33.00;;;;;;;6.39;100.00;100510.80;124790;1098;104030;-78
2023/04/07 07:17:43;;;;;;;58.23;31.77;;;;;;;6.42;100.00;100514.48;124976;1099;101629;-77
2023/04/07 07:20:16;;;;;;;60.25;32.80;;;;;;;6.44;100.00;100511.95;124957;1099;104031;-76
2023/04/07 07:22:49;;;;;;;57.97;33.10;;;;;;;6.46;100.00;100516.41;124915;1099;103945;-77
2023/04/07 07:25:26;;;;;;;56.03;31.70;;;;;;;6.48;100.00;100519.10;124867;1099;103989;-77
2023/04/07 07:28:01;;;;;;;57.97;30.97;;;;;;;6.53;100.00;100521.95;124765;1099;101834;-75
2023/04/07 07:30:33;;;;;;;59.80;33.67;;;;;;;6.56;100.00;100528.25;124812;1099;101805;-75
2023/04/07 07:33:08;;;;;;;56.87;32.53;;;;;;;6.61;100.00;100528.48;124975;1099;104062;-76
2023/04/07 07:35:41;;;;;;;57.93;34.57;;;;;;;6.66;100.00;100532.22;124415;1099;103971;-75
2023/04/07 07:38:15;;;;;;;51.80;31.43;;;;;;;6.72;100.00;100526.44;124973;1099;104034;-76
2023/04/07 07:40:58;;;;;;;55.73;31.33;;;;;;;6.78;100.00;100531.97;125260;1099;104000;-76
2023/04/07 07:43:39;;;;;;;55.40;31.40;;;;;;;6.83;100.00;100533.97;124412;1099;103936;-74
2023/04/07 07:46:27;;;;;;;54.23;30.40;;;;;;;6.86;100.00;100538.46;125316;1099;103919;-79
2023/04/07 07:49:13;;;;;;;50.67;29.50;;;;;;;6.90;100.00;100545.61;126819;1098;101757;-77
2023/04/07 07:51:47;;;;;;;46.10;27.63;;;;;;;6.94;100.00;100547.56;125787;1099;101596;-80
2023/04/07 07:54:22;;;;;;;49.03;28.83;;;;;;;7.01;100.00;100543.55;127407;1098;101855;-78
2023/04/07 07:56:55;;;;;;;51.23;29.73;;;;;;;7.10;100.00;100554.45;125393;1099;101666;-77
2023/04/07 07:59:29;;;;;;;45.50;26.57;;;;;;;7.16;100.00;100554.76;125769;1099;103977;-78
2023/04/07 08:02:06;;;;;;;42.87;24.33;;;;;;;7.21;100.00;100552.37;125419;1099;101882;-78
2023/04/07 08:04:43;;;;;;;46.73;27.87;;;;;;;7.23;100.00;100555.06;124821;1099;103965;-75
2023/04/07 08:07:18;;;;;;;46.08;26.37;;;;;;;7.34;100.00;100553.91;124847;1099;104003;-77
2023/04/07 08:09:50;;;;;;;46.10;27.10;;;;;;;7.50;100.00;100566.88;124914;1099;104102;-76
2023/04/07 08:12:25;;;;;;;42.13;24.07;;;;;;;7.67;100.00;100559.87;124945;1099;101829;-73
2023/04/07 08:14:58;;;;;;;44.40;26.10;;;;;;;7.85;100.00;100565.09;125050;1099;101825;-73
2023/04/07 08:17:37;;;;;;;44.60;26.80;;;;;;;8.00;100.00;100554.45;125014;1099;103462;-76
2023/04/07 08:20:16;;;;;;;42.80;25.23;;;;;;;8.07;100.00;100551.31;124938;1099;102073;-75
2023/04/07 08:22:48;;;;;;;47.53;26.97;;;;;;;8.21;100.00;100556.27;125001;1099;101575;-74
2023/04/07 08:25:21;;;;;;;41.80;25.67;;;;;;;8.34;100.00;100566.47;125031;1099;104028;-75
2023/04/07 08:27:53;;;;;;;;;;;;;;;8.43;100.00;100565.98;125929;1098;101875;-76
2023/04/07 08:30:26;;;;;;;39.03;22.67;;;;;;;8.46;100.00;100558.30;126267;1098;101686;-78
2023/04/07 08:33:07;;;;;;;39.43;25.03;;;;;;;8.45;100.00;100567.00;127072;1098;101563;-80
2023/04/07 08:35:43;;;;;;;39.43;24.77;;;;;;;8.38;100.00;100564.88;126403;1097;101650;-78
2023/04/07 08:38:20;;;;;;;37.57;23.10;;;;;;;8.33;100.00;100569.02;126614;1098;104086;-78
2023/04/07 08:41:01;;;;;;;34.80;21.40;;;;;;;8.28;100.00;100571.42;125419;1099;103942;-76
2023/04/07 08:43:38;;;;;;;37.40;22.90;;;;;;;8.25;100.00;100574.78;126078;1098;104102;-74
2023/04/07 08:46:14;;;;;;;39.57;24.10;;;;;;;8.24;100.00;100572.09;126176;1099;102099;-78
2023/04/07 08:48:56;;;;;;;40.73;24.47;;;;;;;8.28;100.00;100572.30;126480;1098;102990;-79
2023/04/07 08:51:32;;;;;;;34.17;20.17;;;;;;;8.42;100.00;100565.09;125834;1098;103951;-80
2023/04/07 08:54:10;;;;;;;42.43;24.97;;;;;;;8.56;100.00;100565.75;126633;1099;101940;-76
2023/04/07 08:56:45;;;;;;;40.87;25.53;;;;;;;8.69;100.00;100572.41;126228;1099;104034;-78
2023/04/07 08:59:25;;;;;;;43.77;25.97;;;;;;;8.84;100.00;100572.20;125421;1101;102968;-77
2023/04/07 09:02:25;;;;;;;39.50;23.83;;;;;;;8.97;100.00;100571.89;126811;1098;103945;-76
2023/04/07 09:04:59;;;;;;;41.23;24.50;;;;;;;9.17;100.00;100564.90;126471;1098;101619;-77
2023/04/07 09:07:33;;;;;;;34.83;22.03;;;;;;;9.33;100.00;100566.46;126819;1098;102198;-80
2023/04/07 09:10:08;;;;;;;39.73;24.23;;;;;;;9.51;100.00;100565.42;125784;1098;101687;-76
2023/04/07 09:12:41;;;;;;;43.23;24.93;;;;;;;9.69;100.00;100571.42;126605;1098;101705;-79
2023/04/07 09:15:15;;;;;;;37.27;23.17;;;;;;;9.80;100.00;100570.93;126351;1098;101485;-78
2023/04/07 09:17:50;;;;;;;36.80;22.57;;;;;;;9.94;100.00;100567.16;124882;1099;103257;-78
2023/04/07 09:20:57;;;;;;;39.87;24.67;;;;;;;10.05;100.00;100565.84;125054;1100;104099;-78
2023/04/07 09:23:39;;;;;;;38.83;22.50;;;;;;;10.20;100.00;100573.38;124888;1099;101855;-74
2023/04/07 09:26:27;;;;;;;36.87;21.17;;;;;;;10.30;100.00;100572.03;124417;1099;101808;-75
2023/04/07 09:29:02;;;;;;;34.00;19.93;;;;;;;10.48;100.00;100561.34;125162;1098;101653;-78
2023/04/07 09:31:50;;;;;;;31.73;20.07;;;;;;;10.60;100.00;100567.05;125006;1098;101730;-80
2023/04/07 09:34:28;;;;;;;31.43;19.47;;;;;;;10.70;100.00;100565.64;125012;1099;103187;-77
2023/04/07 09:37:01;;;;;;;30.23;18.10;;;;;;;10.85;100.00;100567.05;125045;1099;104187;-74
2023/04/07 09:39:34;;;;;;;26.90;16.47;;;;;;;10.85;100.00;100567.94;125553;1099;103954;-76
2023/04/07 09:42:08;;;;;;;;;;;;;;;10.84;100.00;100566.14;124984;1099;101864;-75
2023/04/07 09:44:45;;;;;;;31.47;19.00;;;;;;;10.90;100.00;100576.86;126515;1098;101650;-77
2023/04/07 09:47:32;;;;;;;28.30;16.67;;;;;;;11.01;100.00;100566.73;125553;1099;102311;-78
2023/04/07 09:50:08;;;;;;;27.77;17.10;;;;;;;11.03;100.00;100567.70;125197;1099;102128;-75
2023/04/07 09:52:54;;;;;;;28.15;18.28;;;;;;;11.10;100.00;100576.68;116291;1098;10001249;-79
2023/04/07 09:55:29;;;;;;;25.53;15.93;;;;;;;11.13;100.00;100569.79;125511;1099;102874;-76
2023/04/07 09:58:01;;;;;;;28.20;15.23;;;;;;;10.99;98.17;100575.42;125114;1099;103999;-76
2023/04/07 10:00:38;;;;;;;27.07;16.17;;;;;;;10.99;100.00;100578.92;125492;1098;104156;-81
2023/04/07 10:03:12;;;;;;;29.17;17.20;;;;;;;11.01;100.00;100573.73;124734;1099;101931;-76
2023/04/07 10:06:04;;;;;;;26.77;15.73;;;;;;;10.98;100.00;100579.75;124455;1099;104006;-74
2023/04/07 10:08:46;;;;;;;28.57;17.23;;;;;;;10.84;100.00;100565.25;125107;1099;102350;-83
2023/04/07 10:11:27;;;;;;;27.57;16.17;;;;;;;10.81;100.00;100586.14;125021;1099;101794;-77
2023/04/07 10:14:04;;;;;;;23.87;13.93;;;;;;;10.75;96.51;100587.72;125580;1098;103964;-79
2023/04/07 10:16:44;;;;;;;26.67;16.03;;;;;;;10.70;98.25;100578.76;126302;1098;103913;-79
2023/04/07 10:19:20;;;;;;;26.40;14.93;;;;;;;10.80;98.70;100585.27;125792;1099;103990;-78
2023/04/07 10:21:55;;;;;;;25.43;15.10;;;;;;;10.91;100.00;100591.78;125778;1099;102930;-79
2023/04/07 10:24:47;;;;;;;24.80;14.20;;;;;;;11.02;100.00;100599.16;125902;1099;103942;-81
2023/04/07 10:27:50;;;;;;;24.67;14.63;;;;;;;10.96;98.96;100594.57;125409;1102;103960;-82
2023/04/07 10:30:37;;;;;;;26.10;14.93;;;;;;;11.02;100.00;100592.16;125845;1100;102381;-81
2023/04/07 10:33:18;;;;;;;25.33;14.17;;;;;;;11.10;100.00;100608.19;125269;1098;103958;-76
2023/04/07 10:39:36;;;;;;;21.47;12.20;;;;;;;10.79;100.00;100599.21;125821;1099;102084;-82
2023/04/07 10:42:50;;;;;;;21.63;12.47;;;;;;;10.59;100.00;100615.10;125928;1099;101912;-81
2023/04/07 10:46:07;;;;;;;23.77;12.63;;;;;;;10.42;100.00;100609.25;126211;1099;102447;-79
2023/04/07 10:52:28;;;;;;;26.67;15.47;;;;;;;10.27;100.00;100608.62;125840;1099;102107;-80
2023/04/07 10:55:35;;;;;;;26.37;16.15;;;;;;;10.26;100.00;100606.83;125905;1099;102316;-81
2023/04/07 10:58:19;;;;;;;26.53;15.07;;;;;;;10.31;100.00;100605.27;125558;1099;101927;-76
2023/04/07 11:01:27;;;;;;;25.57;15.50;;;;;;;10.41;100.00;100602.20;125513;1099;104031;-82
2023/04/07 11:04:07;;;;;;;25.77;15.43;;;;;;;10.65;100.00;100603.07;125946;1099;111608;-81
2023/04/07 11:06:53;;;;;;;28.60;17.03;;;;;;;10.84;100.00;100602.89;125621;1099;102992;-76
2023/04/07 11:09:29;;;;;;;29.50;17.80;;;;;;;11.15;100.00;100609.23;124876;1099;102285;-83
2023/04/07 11:12:08;;;;;;;26.80;16.35;;;;;;;11.36;100.00;100602.93;125302;1098;102140;-77
2023/04/07 11:14:45;;;;;;;26.97;16.07;;;;;;;11.46;98.48;100605.05;125441;1099;101862;-82
2023/04/07 11:17:20;;;;;;;25.80;14.60;;;;;;;11.59;97.47;100601.08;125202;1097;104021;-75
2023/04/07 11:19:57;;;;;;;21.10;12.53;;;;;;;11.59;94.47;100599.33;126094;1099;102104;-82
2023/04/07 11:22:34;;;;;;;22.33;12.83;;;;;;;11.66;100.00;100597.83;126526;1099;101911;-83
2023/04/07 11:25:26;;;;;;;21.73;12.17;;;;;;;11.63;98.51;100603.86;125357;1099;103241;-77
2023/04/07 11:28:02;;;;;;;23.27;12.90;;;;;;;11.58;95.40;100609.83;124835;1098;103942;-81
2023/04/07 11:30:36;;;;;;;23.53;13.23;;;;;;;11.58;97.89;100604.58;127075;1098;103377;-77
2023/04/07 11:33:17;;;;;;;25.20;14.10;;;;;;;11.62;98.39;100599.44;126336;1098;101878;-83
2023/04/07 11:36:35;;;;;;;24.07;12.63;;;;;;;11.73;100.00;100609.42;127196;1098;103469;-78
2023/04/07 11:39:32;;;;;;;20.33;11.87;;;;;;;11.66;97.73;100605.71;125655;1099;104088;-77
2023/04/07 11:42:29;;;;;;;;;;;;;;;;;;;;;
2023/04/07 11:45:23;;;;;;;21.90;12.27;;;;;;;11.60;98.17;100601.12;126076;1099;111265;-79